createdAt,value
2023-05-05T00:00:15.621Z,3.80
2023-05-05T00:02:42.141Z,2.95
2023-05-05T00:05:08.812Z,3.30
2023-05-05T00:07:36.681Z,3.20
2023-05-05T00:10:03.550Z,3.22
2023-05-05T00:12:30.393Z,2.95
2023-05-05T00:14:57.113Z,2.80
2023-05-05T00:17:23.528Z,2.58
2023-05-05T00:19:49.990Z,3.10
2023-05-05T00:22:16.430Z,3.30
2023-05-05T00:24:42.882Z,3.28
2023-05-05T00:27:10.329Z,2.95
2023-05-05T00:29:36.823Z,3.35
2023-05-05T00:32:03.230Z,3.17
2023-05-05T00:34:29.677Z,3.05
2023-05-05T00:36:56.342Z,3.30
2023-05-05T00:39:22.819Z,3.38
2023-05-05T00:41:49.204Z,3.60
2023-05-05T00:44:15.774Z,2.90
2023-05-05T00:46:43.379Z,2.92
2023-05-05T00:49:10.185Z,3.00
2023-05-05T00:51:36.763Z,3.00
2023-05-05T00:54:03.205Z,3.70
2023-05-05T00:56:29.722Z,3.20
2023-05-05T00:58:56.398Z,3.65
2023-05-05T01:01:23.007Z,3.13
2023-05-05T01:03:49.648Z,3.10
2023-05-05T01:06:47.227Z,3.30
2023-05-05T01:09:43.318Z,2.72
2023-05-05T01:12:38.859Z,3.13
2023-05-05T01:15:16.676Z,3.00
2023-05-05T01:17:52.614Z,3.25
2023-05-05T01:20:40.727Z,3.00
2023-05-05T01:23:09.927Z,3.10
2023-05-05T01:25:57.990Z,3.45
2023-05-05T01:28:35.779Z,3.05
2023-05-05T01:31:14.168Z,2.65
2023-05-05T01:33:47.864Z,3.40
2023-05-05T01:36:23.342Z,2.92
2023-05-05T01:38:57.405Z,3.10
2023-05-05T01:41:29.694Z,3.05
2023-05-05T01:43:59.670Z,3.53
2023-05-05T01:46:27.706Z,3.53
2023-05-05T01:48:55.909Z,3.22
2023-05-05T01:51:24.685Z,3.40
2023-05-05T01:54:00.783Z,3.05
2023-05-05T01:56:30.130Z,3.15
2023-05-05T01:58:57.422Z,3.40
2023-05-05T02:01:26.407Z,2.60
2023-05-05T02:03:56.761Z,2.75
2023-05-05T02:06:24.907Z,2.75
2023-05-05T02:08:52.954Z,2.83
2023-05-05T02:11:21.452Z,3.70
2023-05-05T02:13:49.978Z,3.25
2023-05-05T02:16:18.487Z,3.35
2023-05-05T02:18:48.868Z,3.75
2023-05-05T02:21:18.012Z,3.20
2023-05-05T02:23:47.388Z,2.78
2023-05-05T02:26:16.819Z,3.20
2023-05-05T02:29:05.539Z,3.08
2023-05-05T02:31:44.329Z,2.70
2023-05-05T02:34:12.965Z,2.92
2023-05-05T02:36:42.363Z,2.92
2023-05-05T02:39:24.980Z,2.60
2023-05-05T02:41:54.085Z,2.50
2023-05-05T02:44:23.373Z,2.72
2023-05-05T02:46:50.836Z,2.67
2023-05-05T02:49:17.354Z,2.65
2023-05-05T02:51:43.900Z,2.75
2023-05-05T02:54:10.992Z,2.22
2023-05-05T02:56:48.816Z,2.50
2023-05-05T02:59:47.425Z,2.35
2023-05-05T03:02:39.734Z,2.45
2023-05-05T03:05:23.523Z,2.63
2023-05-05T03:08:00.252Z,2.13
2023-05-05T03:10:30.441Z,2.65
2023-05-05T03:13:00.203Z,2.10
2023-05-05T03:15:31.456Z,2.25
2023-05-05T03:17:59.447Z,1.92
2023-05-05T03:20:26.722Z,2.47
2023-05-05T03:22:54.937Z,2.35
2023-05-05T03:25:21.569Z,2.00
2023-05-05T03:27:47.995Z,2.17
2023-05-05T03:30:15.201Z,2.08
2023-05-05T03:32:41.634Z,2.28
2023-05-05T03:35:08.487Z,2.22
2023-05-05T03:37:34.988Z,2.10
2023-05-05T03:40:01.510Z,2.33
2023-05-05T03:42:27.965Z,2.15
2023-05-05T03:44:54.432Z,1.88
2023-05-05T03:47:20.992Z,2.42
2023-05-05T03:49:47.627Z,1.90
2023-05-05T03:52:15.069Z,1.92
2023-05-05T03:54:42.429Z,1.90
2023-05-05T03:57:08.972Z,2.05
2023-05-05T03:59:35.483Z,1.80
2023-05-05T04:02:01.954Z,2.53
2023-05-05T04:04:28.447Z,2.17
2023-05-05T04:06:54.927Z,1.85
2023-05-05T04:09:21.250Z,2.10
2023-05-05T04:11:51.248Z,2.00
2023-05-05T04:14:17.728Z,2.28
2023-05-05T04:16:44.205Z,2.13
2023-05-05T04:19:12.978Z,2.30
2023-05-05T04:21:39.474Z,1.83
2023-05-05T04:24:06.171Z,2.10
2023-05-05T04:26:32.661Z,1.92
2023-05-05T04:28:59.129Z,2.00
2023-05-05T04:31:25.714Z,2.40
2023-05-05T04:33:52.158Z,2.13
2023-05-05T04:36:19.187Z,2.22
2023-05-05T04:38:45.843Z,2.05
2023-05-05T04:41:12.449Z,1.92
2023-05-05T04:43:38.920Z,1.90
2023-05-05T04:46:05.530Z,2.03
2023-05-05T04:48:32.086Z,2.05
2023-05-05T04:50:58.496Z,2.05
2023-05-05T04:53:25.047Z,2.10
2023-05-05T04:55:51.516Z,2.15
2023-05-05T04:58:17.918Z,2.10
2023-05-05T05:00:44.403Z,1.83
2023-05-05T05:03:11.527Z,2.15
2023-05-05T05:05:38.081Z,2.20
2023-05-05T05:08:04.758Z,1.95
2023-05-05T05:10:31.510Z,2.42
2023-05-05T05:12:57.959Z,2.28
2023-05-05T05:15:49.194Z,2.22
2023-05-05T05:29:20.781Z,1.92
2023-05-05T05:33:26.210Z,2.17
2023-05-05T05:43:47.186Z,1.77
2023-05-05T05:50:41.864Z,2.10
2023-05-05T06:03:38.784Z,2.60
2023-05-05T06:06:41.806Z,2.42
2023-05-05T06:09:30.468Z,2.05
2023-05-05T06:19:12.042Z,2.38
2023-05-05T06:37:27.551Z,3.30
2023-05-05T07:09:33.708Z,3.13
2023-05-05T07:12:50.226Z,2.28
2023-05-05T07:23:07.362Z,2.30
2023-05-05T08:28:20.204Z,1.65
2023-05-05T08:31:05.022Z,1.55
2023-05-05T08:33:42.469Z,1.65
2023-05-05T08:36:17.288Z,1.70
2023-05-05T08:42:05.775Z,1.58
2023-05-05T08:44:46.121Z,1.50
2023-05-05T08:47:39.954Z,1.40
2023-05-05T08:50:36.363Z,1.50
2023-05-05T08:56:41.822Z,1.30
2023-05-05T08:59:34.610Z,1.63
2023-05-05T09:02:38.484Z,1.30
2023-05-05T09:05:17.838Z,1.42
2023-05-05T09:08:33.616Z,1.30
2023-05-05T09:11:16.833Z,1.20
2023-05-05T09:13:52.734Z,1.15
2023-05-05T09:16:37.827Z,1.23
2023-05-05T09:19:17.626Z,1.20
2023-05-05T09:22:03.732Z,1.40
2023-05-05T09:24:48.920Z,1.20
2023-05-05T09:27:23.878Z,1.20
2023-05-05T09:30:27.850Z,0.90
2023-05-05T09:33:06.488Z,1.13
2023-05-05T09:35:56.967Z,1.20
2023-05-05T09:38:45.630Z,1.42
2023-05-05T09:41:21.064Z,1.30
2023-05-05T09:44:00.102Z,1.30
2023-05-05T09:46:43.977Z,1.73
2023-05-05T09:50:03.309Z,1.60
2023-05-05T09:52:36.304Z,1.98
2023-05-05T09:55:20.219Z,1.90
2023-05-05T09:58:10.511Z,2.00
2023-05-05T10:00:52.455Z,1.77
2023-05-05T10:03:30.153Z,2.03
2023-05-05T10:06:10.574Z,2.05
2023-05-05T10:08:54.708Z,2.20
2023-05-05T10:11:27.520Z,2.03
2023-05-05T10:14:19.283Z,2.30
2023-05-05T10:17:06.199Z,2.70
2023-05-05T10:20:10.093Z,2.30
2023-05-05T10:26:16.332Z,1.70
2023-05-05T10:29:04.586Z,1.50
2023-05-05T10:32:00.495Z,1.80
2023-05-05T10:34:59.652Z,1.50
2023-05-05T10:38:31.747Z,1.05
2023-05-05T10:41:23.872Z,1.40
2023-05-05T10:45:21.556Z,1.00
2023-05-05T10:51:48.326Z,1.23
2023-05-05T11:02:06.317Z,1.23
2023-05-05T11:09:05.203Z,1.13
2023-05-05T11:26:31.953Z,1.00
2023-05-05T12:31:02.308Z,1.20
2023-05-05T12:33:28.972Z,0.90
2023-05-05T12:35:55.562Z,1.00
2023-05-05T12:38:24.828Z,1.00
2023-05-05T12:40:57.015Z,0.80
2023-05-05T12:43:34.709Z,1.00
2023-05-05T12:46:02.221Z,1.00
2023-05-05T12:48:28.742Z,0.98
2023-05-05T12:50:55.943Z,1.00
2023-05-05T12:53:26.272Z,1.00
2023-05-05T14:28:01.259Z,1.20
2023-05-05T14:30:27.743Z,0.90
2023-05-05T14:33:02.666Z,1.08
2023-05-05T14:35:32.970Z,1.02
2023-05-05T14:37:59.490Z,0.70
2023-05-05T14:40:26.003Z,0.93
2023-05-05T14:42:52.469Z,0.70
2023-05-05T14:45:18.921Z,0.77
2023-05-05T14:47:45.485Z,0.85
2023-05-05T14:50:11.945Z,0.70
2023-05-05T14:52:40.082Z,0.80
2023-05-05T14:55:08.020Z,0.88
2023-05-05T14:57:34.748Z,0.60
2023-05-05T15:00:01.222Z,0.75
2023-05-05T15:02:27.734Z,0.95
2023-05-05T15:04:54.285Z,0.70
2023-05-05T15:07:22.146Z,0.82
2023-05-05T15:09:48.506Z,0.90
2023-05-05T15:12:14.981Z,0.82
2023-05-05T15:14:41.746Z,0.63
2023-05-05T15:17:08.163Z,1.00
2023-05-05T15:19:34.701Z,0.68
2023-05-05T15:22:01.212Z,0.80
2023-05-05T15:24:27.599Z,0.60
2023-05-05T15:26:54.059Z,0.82
2023-05-05T15:29:21.236Z,1.00
2023-05-05T15:31:47.793Z,0.82
2023-05-05T15:34:14.390Z,0.60
2023-05-05T15:36:40.772Z,1.10
2023-05-05T19:03:14.283Z,0.75
2023-05-05T19:27:49.316Z,0.90
2023-05-05T21:54:08.037Z,1.13
2023-05-05T21:57:56.869Z,1.13
2023-05-05T22:57:09.765Z,1.10
2023-05-05T23:25:01.991Z,1.40
2023-05-05T23:27:36.395Z,1.55
2023-05-05T23:30:32.100Z,1.63
2023-05-05T23:33:11.377Z,1.52
2023-05-05T23:35:52.275Z,1.13
2023-05-05T23:38:38.974Z,1.50
2023-05-05T23:41:19.260Z,1.20
2023-05-05T23:44:00.594Z,1.30
2023-05-05T23:46:40.672Z,1.38
2023-05-05T23:49:21.846Z,1.30
2023-05-05T23:52:32.773Z,1.20
2023-05-05T23:55:11.240Z,1.38
2023-05-05T23:57:47.842Z,1.60
